Time;durP1;ratioP1;P1;durP2;ratioP2;P2;SDS_P1;SDS_P2;PMS_P1;PMS_P2;Temp;Humidity;BMP_temperature;BMP_pressure;BME280_temperature;BME280_humidity;BME280_pressure;Samples;Min_cycle;Max_cycle;Signal;HPM_P1;HPM_P2
2023/02/06 00:01:25;;;;;;;35.75;3.88;;;;;;;2.50;100.00;104537.69;5113253;28;20036;-78
2023/02/06 00:03:51;;;;;;;53.78;7.25;;;;;;;2.50;100.00;104532.44;5113306;28;20051;-79
2023/02/06 00:06:17;;;;;;;38.25;5.55;;;;;;;2.47;100.00;104522.78;5113610;28;20061;-80
2023/02/06 00:08:42;;;;;;;35.25;5.07;;;;;;;2.46;100.00;104524.53;5113194;28;20424;-78
2023/02/06 00:11:11;;;;;;;53.72;4.70;;;;;;;2.44;100.00;104515.75;5113131;28;20491;-78
2023/02/06 00:13:37;;;;;;;38.08;5.65;;;;;;;2.44;100.00;104517.50;5113181;28;20116;-78
2023/02/06 00:16:03;;;;;;;46.13;4.93;;;;;;;2.44;100.00;104520.16;5113675;28;20031;-76
2023/02/06 00:18:28;;;;;;;32.88;5.10;;;;;;;2.43;100.00;104531.53;5112408;28;20459;-77
2023/02/06 00:20:54;;;;;;;51.05;5.07;;;;;;;2.42;100.00;104535.91;5113336;28;20035;-77
2023/02/06 00:23:19;;;;;;;40.15;4.63;;;;;;;2.43;100.00;104523.63;5113672;28;20448;-78
2023/02/06 00:25:45;;;;;;;47.83;4.97;;;;;;;2.43;100.00;104513.13;5113960;28;20486;-77
2023/02/06 00:28:11;;;;;;;34.30;4.78;;;;;;;2.44;100.00;104517.50;5115879;28;20023;-77
2023/02/06 00:30:36;;;;;;;46.58;4.60;;;;;;;2.43;100.00;104507.88;5115882;28;20039;-78
2023/02/06 00:33:02;;;;;;;40.25;5.30;;;;;;;2.42;100.00;104509.63;5114989;28;20474;-78
2023/02/06 00:35:27;;;;;;;36.03;4.65;;;;;;;2.41;100.00;104505.22;5113894;28;20027;-77
2023/02/06 00:37:52;;;;;;;40.28;4.50;;;;;;;2.40;100.00;104516.59;5116991;28;20030;-78
2023/02/06 00:40:18;;;;;;;26.40;3.90;;;;;;;2.37;100.00;104521.84;5117054;28;20055;-78
2023/02/06 00:42:43;;;;;;;40.17;5.53;;;;;;;2.35;100.00;104521.00;5116511;28;20027;-78
2023/02/06 00:45:09;;;;;;;38.60;4.95;;;;;;;2.37;100.00;104508.72;5116543;28;20028;-77
2023/02/06 00:47:35;;;;;;;38.92;4.72;;;;;;;2.39;100.00;104514.88;5116263;28;20041;-77
2023/02/06 00:50:01;;;;;;;34.63;5.10;;;;;;;2.41;100.00;104510.50;5116758;28;20463;-78
2023/02/06 00:52:26;;;;;;;38.35;5.15;;;;;;;2.39;100.00;104517.50;5116520;28;20059;-78
2023/02/06 00:54:52;;;;;;;44.10;5.18;;;;;;;2.35;100.00;104513.09;5116337;28;20126;-79
2023/02/06 00:57:17;;;;;;;46.45;4.70;;;;;;;2.31;100.00;104511.34;5116480;28;20030;-78
2023/02/06 00:59:43;;;;;;;42.17;5.53;;;;;;;2.25;100.00;104517.44;5116768;28;20516;-77
2023/02/06 01:02:08;;;;;;;33.80;4.13;;;;;;;2.22;100.00;104516.56;5116360;28;20055;-76
2023/02/06 01:04:34;;;;;;;26.92;4.18;;;;;;;2.19;100.00;104504.28;5115837;28;20110;-78
2023/02/06 01:06:59;;;;;;;49.05;6.07;;;;;;;2.21;100.00;104509.53;5115999;28;20467;-77
2023/02/06 01:09:25;;;;;;;31.02;3.97;;;;;;;2.27;100.00;104507.84;5114748;28;20039;-77
2023/02/06 01:11:50;;;;;;;42.20;5.20;;;;;;;2.29;100.00;104507.84;5116010;28;20512;-77
2023/02/06 01:14:16;;;;;;;43.83;4.45;;;;;;;2.31;100.00;104508.69;5115800;28;20023;-77
2023/02/06 01:16:41;;;;;;;33.35;4.78;;;;;;;2.27;100.00;104506.97;5116128;28;20031;-77
2023/02/06 01:19:06;;;;;;;37.55;3.85;;;;;;;2.23;100.00;104513.06;5116046;28;20430;-77
2023/02/06 01:21:32;;;;;;;22.98;3.67;;;;;;;2.18;100.00;104507.81;5115667;28;20024;-77
2023/02/06 01:23:57;;;;;;;29.88;4.18;;;;;;;2.14;100.00;104510.41;5115994;28;20034;-77
2023/02/06 01:26:25;;;;;;;39.05;4.03;;;;;;;2.11;100.00;104509.50;5115840;28;20027;-76
2023/02/06 01:28:51;;;;;;;31.42;3.90;;;;;;;2.06;100.00;104506.00;5115631;28;20134;-77
2023/02/06 01:31:27;;;;;;;37.83;4.55;;;;;;;2.03;100.00;104508.63;5115361;28;20028;-77
2023/02/06 01:33:55;;;;;;;23.67;3.20;;;;;;;2.01;100.00;104493.72;5115261;28;20019;-77
2023/02/06 01:36:21;;;;;;;30.50;5.10;;;;;;;2.01;100.00;104507.72;5115325;28;20027;-78
2023/02/06 01:38:47;;;;;;;43.55;4.13;;;;;;;2.02;100.00;104506.84;5115328;28;20120;-76
2023/02/06 01:41:15;;;;;;;41.15;5.07;;;;;;;2.10;100.00;104496.38;5115396;28;20525;-75
2023/02/06 01:43:44;;;;;;;49.90;5.68;;;;;;;2.16;100.00;104506.03;5115276;28;20019;-77
2023/02/06 01:46:10;;;;;;;51.53;4.28;;;;;;;2.17;100.00;104499.91;5114374;28;20030;-77
2023/02/06 01:48:50;;;;;;;29.52;4.32;;;;;;;2.15;100.00;104509.53;5114696;28;20442;-78
2023/02/06 01:51:22;;;;;;;34.53;4.85;;;;;;;2.11;100.00;104511.28;5115503;28;20096;-76
2023/02/06 01:53:56;;;;;;;38.25;4.75;;;;;;;2.05;100.00;104511.25;5115283;28;20059;-78
2023/02/06 01:56:24;;;;;;;38.13;4.65;;;;;;;2.01;100.00;104506.84;5115037;28;20476;-77
2023/02/06 01:58:54;;;;;;;34.85;4.35;;;;;;;1.97;100.00;104505.97;5113382;28;20545;-78
2023/02/06 02:01:20;;;;;;;35.20;4.07;;;;;;;2.00;100.00;104499.84;5114698;28;20027;-77
2023/02/06 02:03:47;;;;;;;32.80;4.05;;;;;;;2.01;100.00;104499.84;5115246;28;20056;-77
2023/02/06 02:06:16;;;;;;;26.35;3.92;;;;;;;1.98;100.00;104494.56;5114783;28;20023;-78
2023/02/06 02:08:45;;;;;;;39.35;4.05;;;;;;;1.94;100.00;104496.31;5114611;28;20035;-78
2023/02/06 02:11:15;;;;;;;28.30;4.85;;;;;;;1.89;100.00;104495.41;5114536;28;20035;-78
2023/02/06 02:13:41;;;;;;;24.40;3.47;;;;;;;1.85;100.00;104495.38;5115016;28;20098;-77
2023/02/06 02:16:28;;;;;;;28.75;4.45;;;;;;;1.81;100.00;104494.50;5115430;28;20055;-78
2023/02/06 02:19:30;;;;;;;35.08;4.80;;;;;;;1.77;100.00;104485.72;5115143;28;20086;-77
2023/02/06 02:22:17;;;;;;;36.10;4.32;;;;;;;1.76;100.00;104478.75;5114525;28;20503;-77
2023/02/06 02:25:04;;;;;;;27.08;4.60;;;;;;;1.72;100.00;104476.97;5115213;28;20029;-78
2023/02/06 02:28:07;;;;;;;26.08;3.63;;;;;;;1.67;100.00;104468.19;5114600;28;20024;-77
2023/02/06 02:30:38;;;;;;;22.77;3.20;;;;;;;1.64;100.00;104475.16;5114316;28;20023;-77
2023/02/06 02:33:28;;;;;;;29.15;4.10;;;;;;;1.60;100.00;104471.66;5114426;28;20085;-76
2023/02/06 02:36:12;;;;;;;32.00;3.75;;;;;;;1.55;100.00;104468.09;5114768;28;20129;-77
2023/02/06 02:38:58;;;;;;;21.25;4.18;;;;;;;1.49;100.00;104466.31;5114403;28;20023;-77
2023/02/06 02:41:33;;;;;;;20.98;3.45;;;;;;;1.45;100.00;104454.06;5114255;28;20103;-77
2023/02/06 02:44:11;;;;;;;39.20;4.50;;;;;;;1.45;100.00;104459.31;5114517;28;20023;-77
2023/02/06 02:46:43;;;;;;;31.45;4.82;;;;;;;1.45;100.00;104451.44;5114304;28;20015;-77
2023/02/06 02:49:28;;;;;;;28.73;3.20;;;;;;;1.47;100.00;104465.44;5114098;28;20088;-77
2023/02/06 02:51:54;;;;;;;30.55;3.38;;;;;;;1.47;100.00;104465.44;5114111;28;20038;-76
2023/02/06 02:54:19;;;;;;;24.40;3.97;;;;;;;1.46;100.00;104458.44;5114070;28;20368;-77
2023/02/06 02:56:45;;;;;;;25.20;4.07;;;;;;;1.50;100.00;104459.34;5113851;28;20028;-76
2023/02/06 02:59:22;;;;;;;33.45;4.38;;;;;;;1.54;100.00;104461.13;5114246;28;20048;-77
2023/02/06 03:01:56;;;;;;;35.15;4.35;;;;;;;1.52;100.00;104461.13;5114256;28;20016;-78
2023/02/06 03:04:29;;;;;;;27.13;4.25;;;;;;;1.50;100.00;104467.22;5113598;28;20026;-77
2023/02/06 03:07:16;;;;;;;27.27;3.70;;;;;;;1.51;100.00;104461.09;5114037;28;20047;-77
2023/02/06 03:09:50;;;;;;;32.67;4.13;;;;;;;1.51;100.00;104459.34;5114882;28;20031;-78
2023/02/06 03:12:43;;;;;;;25.85;3.28;;;;;;;1.49;100.00;104461.06;5113909;28;20030;-78
2023/02/06 03:15:28;;;;;;;32.45;3.53;;;;;;;1.48;100.00;104456.72;5114208;28;20031;-77
2023/02/06 03:18:09;;;;;;;32.70;4.25;;;;;;;1.48;100.00;104463.69;5113700;28;20023;-77
2023/02/06 03:20:38;;;;;;;17.30;3.15;;;;;;;1.46;100.00;104465.44;5113076;28;20019;-76
2023/02/06 03:23:06;;;;;;;20.95;2.95;;;;;;;1.46;100.00;104465.44;5113568;28;20050;-77
2023/02/06 03:25:35;;;;;;;29.98;3.95;;;;;;;1.46;100.00;104473.31;5113472;28;20144;-77
2023/02/06 03:28:03;;;;;;;32.25;3.90;;;;;;;1.46;100.00;104474.19;5113828;28;20052;-77
2023/02/06 03:30:30;;;;;;;38.38;4.65;;;;;;;1.46;100.00;104473.31;5113487;28;20065;-76
2023/02/06 03:33:02;;;;;;;24.65;3.58;;;;;;;1.45;100.00;104477.69;5113748;28;20072;-78
2023/02/06 03:35:33;;;;;;;28.15;4.03;;;;;;;1.46;100.00;104478.56;5113112;28;20024;-75
2023/02/06 03:37:59;;;;;;;31.52;3.67;;;;;;;1.51;100.00;104477.72;5113443;28;20031;-77
2023/02/06 03:40:26;;;;;;;44.78;4.28;;;;;;;1.59;100.00;104468.13;5114108;28;20027;-77
2023/02/06 03:42:59;;;;;;;29.70;3.53;;;;;;;1.62;100.00;104464.66;5113336;28;20059;-77
2023/02/06 03:45:35;;;;;;;32.50;3.70;;;;;;;1.60;100.00;104471.66;5114139;28;20033;-77
2023/02/06 03:48:07;;;;;;;33.05;4.25;;;;;;;1.59;100.00;104477.75;5113970;28;20043;-76
2023/02/06 03:50:34;;;;;;;27.80;3.88;;;;;;;1.59;100.00;104475.13;5113746;28;20343;-76
2023/02/06 03:53:03;;;;;;;36.85;4.25;;;;;;;1.59;100.00;104476.00;5113341;28;20444;-79
2023/02/06 03:55:28;;;;;;;25.10;4.20;;;;;;;1.65;100.00;104471.66;5113030;28;20059;-78
2023/02/06 03:58:02;;;;;;;37.33;4.10;;;;;;;1.72;100.00;104471.72;5113030;28;20088;-78
2023/02/06 04:00:30;;;;;;;35.42;4.47;;;;;;;1.65;100.00;104467.28;5113209;28;20035;-79
2023/02/06 04:02:56;;;;;;;27.17;3.75;;;;;;;1.54;100.00;104469.88;5112845;28;20063;-77
2023/02/06 04:05:22;;;;;;;15.60;3.33;;;;;;;1.42;100.00;104464.56;5113409;28;20466;-77
2023/02/06 04:07:47;;;;;;;23.65;3.83;;;;;;;1.31;100.00;104467.09;5113214;28;20027;-77
2023/02/06 04:10:13;;;;;;;28.38;3.63;;;;;;;1.22;100.00;104472.28;5114123;28;20030;-77
2023/02/06 04:12:38;;;;;;;28.70;3.92;;;;;;;1.15;100.00;104471.38;5117034;28;20455;-77
2023/02/06 04:15:04;;;;;;;22.63;3.15;;;;;;;1.09;100.00;104463.47;5117059;28;20032;-77
2023/02/06 04:17:29;;;;;;;25.00;2.80;;;;;;;1.07;100.00;104461.69;5116927;28;20051;-77
2023/02/06 04:19:55;;;;;;;19.55;3.10;;;;;;;1.10;100.00;104448.59;5116873;28;20042;-77
2023/02/06 04:22:20;;;;;;;32.58;3.85;;;;;;;1.16;100.00;104464.38;5117449;28;20333;-76
2023/02/06 04:24:45;;;;;;;26.25;4.10;;;;;;;1.20;100.00;104467.03;5117241;28;20335;-77
2023/02/06 04:27:13;;;;;;;32.28;4.85;;;;;;;1.25;100.00;104476.66;5116790;28;20099;-77
2023/02/06 04:29:38;;;;;;;36.22;4.45;;;;;;;1.23;100.00;104474.03;5115354;28;20297;-77
2023/02/06 04:32:05;;;;;;;20.42;3.05;;;;;;;1.14;100.00;104474.84;5117282;28;20030;-77
2023/02/06 04:34:31;;;;;;;21.10;3.15;;;;;;;1.10;100.00;104480.06;5116315;28;20424;-77
2023/02/06 04:36:58;;;;;;;28.95;3.90;;;;;;;1.16;100.00;104482.72;5116818;28;20115;-77
2023/02/06 04:39:24;;;;;;;29.50;3.28;;;;;;;1.19;100.00;104499.34;5116555;28;20034;-78
2023/02/06 04:41:50;;;;;;;28.50;3.75;;;;;;;1.16;100.00;104496.72;5116749;28;20051;-78
2023/02/06 04:44:15;;;;;;;16.80;2.78;;;;;;;1.12;100.00;104491.44;5116264;28;20046;-78
2023/02/06 04:46:42;;;;;;;25.63;3.30;;;;;;;1.08;100.00;104493.16;5116308;28;20027;-78
2023/02/06 04:49:08;;;;;;;23.30;3.05;;;;;;;1.06;100.00;104492.28;5116739;28;20055;-78
2023/02/06 04:51:33;;;;;;;26.48;3.20;;;;;;;1.05;100.00;104493.16;5116417;28;20114;-79
2023/02/06 04:54:01;;;;;;;32.83;3.25;;;;;;;1.08;100.00;104485.31;5115114;28;20035;-79
2023/02/06 04:56:26;;;;;;;14.38;2.60;;;;;;;1.07;100.00;104490.53;5116518;28;20028;-77
2023/02/06 04:58:51;;;;;;;13.43;1.98;;;;;;;1.05;100.00;104487.91;5116237;28;20135;-77
2023/02/06 05:01:18;;;;;;;22.58;2.75;;;;;;;1.03;100.00;104487.00;5116809;28;20085;-77
2023/02/06 05:03:44;;;;;;;17.90;3.75;;;;;;;1.00;100.00;104486.97;5116501;28;20082;-77
2023/02/06 05:06:09;;;;;;;19.05;2.53;;;;;;;0.94;100.00;104481.69;5115977;28;20468;-77
2023/02/06 05:08:35;;;;;;;20.48;2.55;;;;;;;0.87;100.00;104486.00;5116020;28;20035;-76
2023/02/06 05:11:00;;;;;;;14.85;2.83;;;;;;;0.82;100.00;104483.34;5115900;28;20143;-76
2023/02/06 05:13:25;;;;;;;16.70;2.70;;;;;;;0.78;100.00;104488.56;5116088;28;20059;-76
2023/02/06 05:15:51;;;;;;;21.95;3.83;;;;;;;0.73;100.00;104487.59;5116189;28;20028;-77
2023/02/06 05:18:17;;;;;;;34.22;3.70;;;;;;;0.72;100.00;104484.13;5116031;28;20031;-77
2023/02/06 05:20:42;;;;;;;17.17;3.28;;;;;;;0.67;100.00;104476.22;5115433;28;20034;-77
2023/02/06 05:23:08;;;;;;;13.82;3.13;;;;;;;0.59;100.00;104471.75;5115718;28;20448;-77
2023/02/06 05:25:35;;;;;;;18.35;3.05;;;;;;;0.54;100.00;104463.84;5115840;28;20023;-77
2023/02/06 05:28:01;;;;;;;20.20;3.15;;;;;;;0.49;100.00;104465.53;5115604;28;20028;-77
2023/02/06 05:30:27;;;;;;;30.42;3.50;;;;;;;0.51;100.00;104456.84;5116174;28;20455;-77
2023/02/06 05:32:52;;;;;;;28.77;3.70;;;;;;;0.63;100.00;104456.06;5115798;28;20036;-77
2023/02/06 05:35:18;;;;;;;23.90;2.83;;;;;;;0.64;100.00;104464.81;5115606;28;20027;-77
2023/02/06 05:37:43;;;;;;;21.35;3.03;;;;;;;0.60;100.00;104468.25;5114461;28;20031;-76
2023/02/06 05:40:09;;;;;;;20.45;2.75;;;;;;;0.53;100.00;104468.19;5115404;28;20019;-77
2023/02/06 05:42:35;;;;;;;16.92;2.80;;;;;;;0.50;100.00;104459.44;5117216;28;20046;-77
2023/02/06 05:45:00;;;;;;;20.15;2.60;;;;;;;0.50;100.00;104459.44;5117564;28;20028;-76
2023/02/06 05:47:26;;;;;;;14.98;2.53;;;;;;;0.53;100.00;104462.97;5118529;28;20031;-76
2023/02/06 05:49:51;;;;;;;14.73;2.67;;;;;;;0.56;100.00;104475.22;5115446;28;20440;-77
2023/02/06 05:52:17;;;;;;;16.88;3.13;;;;;;;0.58;100.00;104470.00;5114930;28;20077;-76
2023/02/06 05:54:43;;;;;;;15.90;2.33;;;;;;;0.60;100.00;104471.78;5115225;28;20355;-77
2023/02/06 05:57:08;;;;;;;23.98;2.88;;;;;;;0.65;100.00;104472.69;5115164;28;20027;-76
2023/02/06 05:59:34;;;;;;;22.58;3.08;;;;;;;0.72;100.00;104475.34;5114569;28;20127;-76
2023/02/06 06:01:59;;;;;;;19.27;2.97;;;;;;;0.74;100.00;104478.91;5115442;28;20047;-76
2023/02/06 06:04:25;;;;;;;24.50;3.38;;;;;;;0.78;100.00;104471.06;5115245;28;20475;-76
2023/02/06 06:06:50;;;;;;;26.00;3.80;;;;;;;0.84;100.00;104460.63;5114860;28;20028;-76
2023/02/06 06:09:16;;;;;;;32.28;3.55;;;;;;;0.87;100.00;104468.53;5115448;28;20027;-77
2023/02/06 06:11:41;;;;;;;25.40;3.10;;;;;;;0.90;100.00;104470.28;5115398;28;20336;-76
2023/02/06 06:14:07;;;;;;;21.05;3.53;;;;;;;0.92;100.00;104471.19;5114468;28;20463;-76
2023/02/06 06:16:33;;;;;;;23.30;3.42;;;;;;;0.90;100.00;104475.53;5115003;28;20040;-77
2023/02/06 06:18:58;;;;;;;27.40;3.60;;;;;;;0.86;100.00;104466.75;5114879;28;20031;-76
2023/02/06 06:21:23;;;;;;;22.20;2.88;;;;;;;0.85;100.00;104477.22;5115146;28;20394;-76
2023/02/06 06:23:49;;;;;;;15.48;3.00;;;;;;;0.81;100.00;104475.47;5114650;28;20421;-75
2023/02/06 06:26:14;;;;;;;22.73;2.53;;;;;;;0.77;100.00;104466.69;5114568;28;20031;-76
2023/02/06 06:28:40;;;;;;;36.78;4.47;;;;;;;0.79;100.00;104462.34;5114943;28;20026;-76
2023/02/06 06:31:10;;;;;;;28.88;3.50;;;;;;;0.80;100.00;104460.59;5114762;28;20059;-77
2023/02/06 06:33:36;;;;;;;26.23;3.95;;;;;;;0.76;100.00;104458.78;5114091;28;20027;-76
2023/02/06 06:36:01;;;;;;;34.22;3.63;;;;;;;0.70;100.00;104454.38;5114344;28;20448;-76
2023/02/06 06:38:27;;;;;;;22.58;3.13;;;;;;;0.69;100.00;104458.75;5113514;28;20027;-76
2023/02/06 06:40:52;;;;;;;20.20;4.00;;;;;;;0.65;100.00;104449.09;5114876;28;20027;-76
2023/02/06 06:43:17;;;;;;;17.23;3.42;;;;;;;0.67;100.00;104457.88;5114290;28;20061;-77
2023/02/06 06:45:43;;;;;;;13.38;2.92;;;;;;;0.66;100.00;104450.84;5114321;28;20027;-77
2023/02/06 06:48:08;;;;;;;25.23;3.22;;;;;;;0.65;100.00;104456.97;5114498;28;20102;-77
2023/02/06 06:50:34;;;;;;;24.52;4.00;;;;;;;0.63;100.00;104457.84;5114495;28;20050;-77
2023/02/06 06:52:59;;;;;;;25.38;3.72;;;;;;;0.59;100.00;104450.78;5112793;28;20031;-76
2023/02/06 06:55:25;;;;;;;17.67;3.05;;;;;;;0.57;100.00;104452.50;5113995;28;20464;-77
2023/02/06 06:57:50;;;;;;;14.82;2.78;;;;;;;0.53;100.00;104459.47;5113959;28;20023;-77
2023/02/06 07:00:16;;;;;;;27.10;3.40;;;;;;;0.49;100.00;104462.91;5114250;28;20036;-77
2023/02/06 07:02:42;;;;;;;19.13;2.83;;;;;;;0.46;100.00;104470.75;5114087;28;20031;-77
2023/02/06 07:05:08;;;;;;;18.35;2.78;;;;;;;0.43;100.00;104473.34;5113956;28;20024;-77
2023/02/06 07:07:33;;;;;;;25.10;3.78;;;;;;;0.41;100.00;104475.09;5113985;28;20024;-77
2023/02/06 07:09:59;;;;;;;24.13;3.75;;;;;;;0.38;100.00;104467.19;5113583;28;20073;-76
2023/02/06 07:12:26;;;;;;;18.25;2.97;;;;;;;0.35;100.00;104471.50;5113801;28;20028;-77
2023/02/06 07:14:51;;;;;;;22.73;3.38;;;;;;;0.33;100.00;104475.00;5113750;28;20019;-76
2023/02/06 07:17:17;;;;;;;17.75;3.55;;;;;;;0.29;100.00;104475.81;5113610;28;20416;-76
2023/02/06 07:19:46;;;;;;;21.10;3.38;;;;;;;0.25;100.00;104467.03;5113532;28;20019;-76
2023/02/06 07:22:15;;;;;;;22.40;3.92;;;;;;;0.26;100.00;104460.06;5113442;28;20127;-77
2023/02/06 07:24:40;;;;;;;20.73;3.75;;;;;;;0.28;100.00;104455.72;5114182;28;20341;-76
2023/02/06 07:27:06;;;;;;;27.48;3.72;;;;;;;0.34;100.00;104455.78;5113709;28;20028;-76
2023/02/06 07:29:31;;;;;;;30.65;5.07;;;;;;;0.37;100.00;104461.03;5113973;28;20031;-76
2023/02/06 07:31:58;;;;;;;16.30;3.25;;;;;;;0.40;100.00;104454.97;5113957;28;20024;-75
2023/02/06 07:34:23;;;;;;;15.55;3.55;;;;;;;0.42;100.00;104443.66;5113451;28;20027;-76
2023/02/06 07:36:49;;;;;;;24.23;3.80;;;;;;;0.46;100.00;104445.44;5112281;28;20114;-76
2023/02/06 07:39:15;;;;;;;24.92;3.70;;;;;;;0.56;100.00;104446.41;5112006;28;20030;-76
2023/02/06 07:41:41;;;;;;;21.27;4.22;;;;;;;0.65;100.00;104450.84;5113351;28;20180;-76
2023/02/06 07:44:09;;;;;;;17.17;3.90;;;;;;;0.72;100.00;104450.03;5113920;28;20042;-76
2023/02/06 07:46:35;;;;;;;25.65;4.90;;;;;;;0.77;100.00;104448.31;5117509;28;20102;-76
2023/02/06 07:49:00;;;;;;;27.45;4.65;;;;;;;0.83;100.00;104444.88;5117383;28;20413;-75
2023/02/06 07:51:26;;;;;;;40.03;5.15;;;;;;;0.88;100.00;104436.19;5116623;28;20055;-76
2023/02/06 07:53:51;;;;;;;32.47;6.18;;;;;;;0.95;100.00;104444.09;5117411;28;20461;-76
2023/02/06 07:56:18;;;;;;;30.58;5.20;;;;;;;0.99;100.00;104444.13;5117216;28;20031;-76
2023/02/06 07:58:46;;;;;;;32.90;5.00;;;;;;;1.06;100.00;104445.06;5117338;28;20097;-76
2023/02/06 08:01:11;;;;;;;27.38;5.35;;;;;;;1.12;100.00;104439.88;5115660;28;20399;-75
2023/02/06 08:03:37;;;;;;;39.03;6.68;;;;;;;1.20;100.00;104432.91;5117638;28;20019;-76
2023/02/06 08:06:11;;;;;;;27.13;5.10;;;;;;;1.28;100.00;104425.09;5117382;28;20431;-75
2023/02/06 08:08:36;;;;;;;23.77;4.70;;;;;;;1.36;100.00;104420.78;5117062;28;20024;-76
2023/02/06 08:11:06;;;;;;;33.92;5.63;;;;;;;1.45;100.00;104427.81;5115713;28;20023;-75
2023/02/06 08:13:32;;;;;;;30.02;5.18;;;;;;;1.53;100.00;104423.47;5117362;28;20027;-76
2023/02/06 08:15:58;;;;;;;47.45;6.07;;;;;;;1.63;100.00;104410.38;5116947;28;20456;-75
2023/02/06 08:18:23;;;;;;;34.05;5.38;;;;;;;1.74;100.00;104414.81;5116163;28;20115;-75
2023/02/06 08:20:48;;;;;;;43.88;6.13;;;;;;;1.85;100.00;104403.47;5115803;28;20027;-75
2023/02/06 08:23:14;;;;;;;39.90;5.53;;;;;;;1.97;100.00;104398.28;5117310;28;20036;-76
2023/02/06 08:25:39;;;;;;;43.30;6.15;;;;;;;2.09;100.00;104387.78;5116824;28;20070;-75
2023/02/06 08:28:05;;;;;;;28.20;5.20;;;;;;;2.23;100.00;104384.31;5116643;28;20363;-75
2023/02/06 08:30:31;;;;;;;46.03;6.35;;;;;;;2.35;100.00;104384.31;5117077;28;20496;-76
2023/02/06 08:32:57;;;;;;;37.70;7.47;;;;;;;2.47;100.00;104389.56;5116661;28;20027;-78
2023/02/06 08:35:23;;;;;;;42.78;5.82;;;;;;;2.59;100.00;104382.56;5116712;28;20045;-75
2023/02/06 08:37:48;;;;;;;48.67;6.13;;;;;;;2.67;100.00;104375.53;5116521;28;20519;-74
2023/02/06 08:40:13;;;;;;;43.00;5.72;;;;;;;2.72;100.00;104376.44;5116123;28;20528;-74
2023/02/06 08:42:39;;;;;;;43.10;6.65;;;;;;;2.81;100.00;104373.78;5116150;28;20439;-75
2023/02/06 08:45:04;;;;;;;51.38;7.32;;;;;;;2.99;100.00;104374.66;5116005;28;20062;-75
2023/02/06 08:47:30;;;;;;;36.40;5.97;;;;;;;3.20;100.00;104360.56;5116015;28;20068;-75
2023/02/06 08:49:55;;;;;;;37.63;5.63;;;;;;;3.43;100.00;104356.97;5116371;28;20035;-76
2023/02/06 08:52:22;;;;;;;34.08;5.85;;;;;;;3.47;100.00;104346.41;5116251;28;20110;-75
2023/02/06 08:54:49;;;;;;;37.97;5.45;;;;;;;3.44;100.00;104348.19;5115831;28;20027;-73
2023/02/06 08:57:15;;;;;;;48.40;5.70;;;;;;;3.34;100.00;104355.22;5115021;28;20031;-73
2023/02/06 08:59:40;;;;;;;32.33;4.90;;;;;;;3.20;100.00;104357.94;5116085;28;20031;-74
2023/02/06 09:02:06;;;;;;;38.30;4.80;;;;;;;3.03;100.00;104360.63;5116023;28;20083;-73
2023/02/06 09:04:34;;;;;;;32.40;5.70;;;;;;;2.89;100.00;104357.13;5116206;28;20067;-73
2023/02/06 09:06:59;;;;;;;26.05;5.47;;;;;;;2.81;100.00;104363.28;5116050;28;20058;-76
2023/02/06 09:09:25;;;;;;;37.80;5.32;;;;;;;2.86;100.00;104357.13;5115414;28;20324;-75
2023/02/06 09:11:50;;;;;;;33.85;5.60;;;;;;;2.98;100.00;104360.59;5115925;28;20055;-74
2023/02/06 09:14:17;;;;;;;51.15;6.32;;;;;;;3.16;100.00;104354.44;5115722;28;20030;-73
2023/02/06 09:16:43;;;;;;;44.17;6.10;;;;;;;3.38;100.00;104353.47;5116041;28;20055;-75
2023/02/06 09:19:09;;;;;;;38.67;5.80;;;;;;;3.55;100.00;104353.41;5115707;28;20367;-73
2023/02/06 09:21:35;;;;;;;42.25;6.00;;;;;;;3.70;100.00;104356.84;5115313;28;20059;-72
2023/02/06 09:24:04;;;;;;;50.85;6.60;;;;;;;3.84;100.00;104355.88;5116163;28;20055;-74
2023/02/06 09:26:37;;;;;;;53.45;6.05;;;;;;;4.03;100.00;104356.63;5115461;28;20110;-75
2023/02/06 09:29:07;;;;;;;37.10;5.00;;;;;;;4.15;100.00;104359.19;5115667;28;20022;-74
2023/02/06 09:31:35;;;;;;;37.30;4.40;;;;;;;4.34;100.00;104351.13;5115647;28;20030;-74
2023/02/06 09:34:01;;;;;;;37.80;5.13;;;;;;;4.50;100.00;104344.84;5115318;28;20019;-76
2023/02/06 09:36:29;;;;;;;45.03;4.60;;;;;;;4.54;100.00;104337.81;5115297;28;20028;-75
2023/02/06 09:38:56;;;;;;;38.75;4.68;;;;;;;4.57;100.00;104328.06;5115305;28;20068;-73
2023/02/06 09:41:38;;;;;;;28.35;4.70;;;;;;;4.65;100.00;104321.88;5115856;28;20137;-73
2023/02/06 09:44:09;;;;;;;33.58;3.92;;;;;;;4.87;100.00;104320.75;5115266;28;20065;-74
2023/02/06 09:46:37;;;;;;;24.58;4.40;;;;;;;5.12;100.00;104318.72;5115375;28;20024;-74
2023/02/06 09:49:11;;;;;;;25.02;3.40;;;;;;;5.32;100.00;104328.16;5113809;28;20364;-74
2023/02/06 09:51:54;;;;;;;34.63;5.50;;;;;;;5.51;100.00;104331.44;5115316;28;20084;-75
2023/02/06 09:54:44;;;;;;;27.50;4.15;;;;;;;5.72;100.00;104334.66;5115126;28;20055;-75
2023/02/06 09:57:20;;;;;;;38.03;5.22;;;;;;;6.02;100.00;104341.31;5115051;28;20034;-74
2023/02/06 09:59:54;;;;;;;22.15;4.10;;;;;;;6.09;100.00;104352.63;5115576;28;20466;-73
2023/02/06 10:02:34;;;;;;;22.00;3.30;;;;;;;6.64;100.00;104348.19;5115573;28;20044;-77
2023/02/06 10:05:17;;;;;;;28.70;4.82;;;;;;;6.91;100.00;104343.31;5114861;28;20023;-74
2023/02/06 10:07:45;;;;;;;30.70;4.47;;;;;;;7.06;100.00;104329.75;5113934;28;20023;-72
2023/02/06 10:10:49;;;;;;;23.10;3.40;;;;;;;7.27;100.00;104340.81;5114753;28;20024;-74
2023/02/06 10:13:53;;;;;;;30.00;3.58;;;;;;;7.28;100.00;104342.56;5104851;28;20035;-74
2023/02/06 10:16:34;;;;;;;25.30;3.63;;;;;;;7.57;100.00;104347.25;5063740;28;20124;-75
2023/02/06 10:19:08;;;;;;;26.35;4.45;;;;;;;8.09;100.00;104348.72;5115063;28;20038;-75
2023/02/06 10:21:46;;;;;;;26.73;3.97;;;;;;;8.52;100.00;104343.25;5114734;28;20019;-73
2023/02/06 10:24:26;;;;;;;26.15;3.92;;;;;;;9.47;100.00;104337.06;5114807;28;20031;-75
2023/02/06 10:26:53;;;;;;;21.00;3.20;;;;;;;9.79;100.00;104343.16;5114657;28;20019;-76
2023/02/06 10:29:26;;;;;;;22.30;4.15;;;;;;;10.20;100.00;104347.16;5113923;28;20089;-76
2023/02/06 10:32:29;;;;;;;26.92;3.75;;;;;;;11.19;100.00;104350.84;5115098;28;20034;-76
2023/02/06 10:35:04;;;;;;;15.00;2.80;;;;;;;12.34;92.29;104354.28;5114634;28;20023;-73
2023/02/06 10:37:46;;;;;;;26.73;3.50;;;;;;;12.18;94.31;104361.19;5114657;28;20030;-72
2023/02/06 10:40:22;;;;;;;28.08;4.25;;;;;;;12.03;98.79;104351.16;5114147;28;20034;-76
2023/02/06 10:43:24;;;;;;;19.50;3.33;;;;;;;12.35;82.26;104341.81;5114175;28;20099;-73
2023/02/06 10:45:50;;;;;;;19.67;3.38;;;;;;;11.59;89.76;104341.34;5114313;28;20015;-74
2023/02/06 10:48:28;;;;;;;19.25;3.13;;;;;;;10.31;100.00;104343.28;5113709;28;20031;-74
2023/02/06 10:51:06;;;;;;;34.03;4.30;;;;;;;10.61;100.00;104356.50;5113928;28;20092;-74
2023/02/06 10:53:38;;;;;;;19.25;2.75;;;;;;;10.99;100.00;104359.56;5114191;28;20530;-74
2023/02/06 10:56:08;;;;;;;19.33;3.72;;;;;;;11.32;97.78;104353.94;5113228;28;20046;-74
2023/02/06 10:58:41;;;;;;;14.68;2.65;;;;;;;10.70;100.00;104361.50;5113737;28;20028;-73
2023/02/06 11:01:10;;;;;;;31.58;5.40;;;;;;;9.82;100.00;104345.75;5113786;28;20151;-72
2023/02/06 11:03:44;;;;;;;24.60;3.58;;;;;;;9.18;100.00;104347.66;5114211;28;20035;-74
2023/02/06 11:06:14;;;;;;;21.48;3.22;;;;;;;8.62;100.00;104345.63;5114433;28;20427;-73
2023/02/06 11:08:43;;;;;;;37.00;4.43;;;;;;;8.45;100.00;104342.56;5114061;28;20019;-72
2023/02/06 11:11:24;;;;;;;22.52;3.72;;;;;;;8.95;100.00;104340.31;5115719;28;20020;-73
2023/02/06 11:13:54;;;;;;;17.35;3.60;;;;;;;9.94;100.00;104334.72;5114108;28;20066;-74
2023/02/06 11:16:24;;;;;;;20.58;3.85;;;;;;;10.82;100.00;104342.41;5113805;28;20039;-73
2023/02/06 11:18:50;;;;;;;25.20;4.25;;;;;;;11.21;95.38;104333.00;5113249;28;20099;-73
2023/02/06 11:21:45;;;;;;;30.20;3.97;;;;;;;10.80;95.79;104338.94;5113166;28;20529;-72
2023/02/06 11:24:13;;;;;;;24.05;4.22;;;;;;;10.00;100.00;104341.63;5113553;28;20050;-72
2023/02/06 11:26:47;;;;;;;22.30;3.38;;;;;;;9.38;100.00;104342.66;5113318;28;20024;-72